Bargoed, United Kingdom
Current Conditions -  °F | °C
As of 5:20 PM on Thursday 27 Nov 2014 (Local Time) from EGFF Reporting Station
Overcast Overcast  
Wind Chill: 41°   Ceiling: 1900
Heat Index: 46°   Visibility: 4mi
Dew Point: 46°   Wind: 13mph
Humidity: 100%   Direction: 70°ENE
Pressure: 29.5"   Gusts: NA
Location:  51.68°N, 3.23°W
Report Text: EGFF 271720Z AUTO 07011KT 6000 BKN019 OVC044 08/08 Q0999
Loading
Personal Weather Stations






























Interactive Weather Map New forecast layout! Learn more

10-Day Weather Forecast

Advertisements
Track Severe Weather on mobile